sensor_id;sensor_type;location;lat;lon;timestamp;temperature;humidity
20171;DHT22;10245;51.344;6.620;2022-10-16T00:00:47;12.30;94.50
20171;DHT22;10245;51.344;6.620;2022-10-16T00:03:11;12.40;94.60
20171;DHT22;10245;51.344;6.620;2022-10-16T00:05:38;12.40;94.60
20171;DHT22;10245;51.344;6.620;2022-10-16T00:08:02;12.30;94.60
20171;DHT22;10245;51.344;6.620;2022-10-16T00:10:27;12.40;94.80
20171;DHT22;10245;51.344;6.620;2022-10-16T00:12:50;12.40;94.70
20171;DHT22;10245;51.344;6.620;2022-10-16T00:15:14;12.30;94.70
20171;DHT22;10245;51.344;6.620;2022-10-16T00:17:37;12.40;94.70
20171;DHT22;10245;51.344;6.620;2022-10-16T00:20:01;12.40;94.80
20171;DHT22;10245;51.344;6.620;2022-10-16T00:22:25;12.40;94.70
20171;DHT22;10245;51.344;6.620;2022-10-16T00:24:48;12.30;94.60
20171;DHT22;10245;51.344;6.620;2022-10-16T00:27:13;12.40;94.70
20171;DHT22;10245;51.344;6.620;2022-10-16T00:29:37;12.40;94.80
20171;DHT22;10245;51.344;6.620;2022-10-16T00:32:00;12.40;94.70
20171;DHT22;10245;51.344;6.620;2022-10-16T00:34:23;12.50;94.80
20171;DHT22;10245;51.344;6.620;2022-10-16T00:36:46;12.40;94.80
20171;DHT22;10245;51.344;6.620;2022-10-16T00:39:10;12.40;94.80
20171;DHT22;10245;51.344;6.620;2022-10-16T00:41:34;12.50;94.80
20171;DHT22;10245;51.344;6.620;2022-10-16T00:44:00;12.40;94.70
20171;DHT22;10245;51.344;6.620;2022-10-16T00:46:27;12.40;94.70
20171;DHT22;10245;51.344;6.620;2022-10-16T00:48:56;12.50;95.00
20171;DHT22;10245;51.344;6.620;2022-10-16T00:51:28;12.40;94.70
20171;DHT22;10245;51.344;6.620;2022-10-16T00:53:53;12.40;94.70
20171;DHT22;10245;51.344;6.620;2022-10-16T00:56:18;12.40;94.70
20171;DHT22;10245;51.344;6.620;2022-10-16T00:58:41;12.30;94.80
20171;DHT22;10245;51.344;6.620;2022-10-16T01:01:06;12.40;94.80
20171;DHT22;10245;51.344;6.620;2022-10-16T01:03:31;12.30;94.90
20171;DHT22;10245;51.344;6.620;2022-10-16T01:06:05;12.40;94.80
20171;DHT22;10245;51.344;6.620;2022-10-16T01:08:45;12.30;94.60
20171;DHT22;10245;51.344;6.620;2022-10-16T01:11:25;12.20;94.60
20171;DHT22;10245;51.344;6.620;2022-10-16T01:13:54;12.30;94.70
20171;DHT22;10245;51.344;6.620;2022-10-16T01:16:28;12.30;94.70
20171;DHT22;10245;51.344;6.620;2022-10-16T01:18:57;12.20;94.50
20171;DHT22;10245;51.344;6.620;2022-10-16T01:21:30;12.20;94.50
20171;DHT22;10245;51.344;6.620;2022-10-16T01:24:02;12.10;94.30
20171;DHT22;10245;51.344;6.620;2022-10-16T01:26:41;12.10;94.40
20171;DHT22;10245;51.344;6.620;2022-10-16T01:29:18;12.20;94.60
20171;DHT22;10245;51.344;6.620;2022-10-16T01:31:46;12.10;94.50
20171;DHT22;10245;51.344;6.620;2022-10-16T01:34:15;12.10;94.60
20171;DHT22;10245;51.344;6.620;2022-10-16T01:36:45;12.20;94.50
20171;DHT22;10245;51.344;6.620;2022-10-16T01:39:11;12.20;94.60
20171;DHT22;10245;51.344;6.620;2022-10-16T01:41:38;12.20;94.60
20171;DHT22;10245;51.344;6.620;2022-10-16T01:44:04;12.30;94.70
20171;DHT22;10245;51.344;6.620;2022-10-16T01:46:32;12.30;94.70
20171;DHT22;10245;51.344;6.620;2022-10-16T01:48:59;12.30;94.60
20171;DHT22;10245;51.344;6.620;2022-10-16T01:51:24;12.30;94.50
20171;DHT22;10245;51.344;6.620;2022-10-16T01:53:51;12.20;94.50
20171;DHT22;10245;51.344;6.620;2022-10-16T01:56:17;12.20;94.40
20171;DHT22;10245;51.344;6.620;2022-10-16T01:58:45;12.10;94.50
20171;DHT22;10245;51.344;6.620;2022-10-16T02:01:11;12.10;94.80
20171;DHT22;10245;51.344;6.620;2022-10-16T02:03:43;12.00;95.00
20171;DHT22;10245;51.344;6.620;2022-10-16T02:06:09;12.00;95.00
20171;DHT22;10245;51.344;6.620;2022-10-16T02:08:32;12.00;95.20
20171;DHT22;10245;51.344;6.620;2022-10-16T02:10:58;12.10;95.10
20171;DHT22;10245;51.344;6.620;2022-10-16T02:13:27;12.00;95.00
20171;DHT22;10245;51.344;6.620;2022-10-16T02:15:54;12.00;95.00
20171;DHT22;10245;51.344;6.620;2022-10-16T02:18:18;12.00;95.10
20171;DHT22;10245;51.344;6.620;2022-10-16T02:20:48;12.10;95.10
20171;DHT22;10245;51.344;6.620;2022-10-16T02:23:19;12.10;95.10
20171;DHT22;10245;51.344;6.620;2022-10-16T02:25:45;12.10;95.20
20171;DHT22;10245;51.344;6.620;2022-10-16T02:28:15;12.10;95.40
20171;DHT22;10245;51.344;6.620;2022-10-16T02:30:43;12.10;95.40
20171;DHT22;10245;51.344;6.620;2022-10-16T02:33:10;12.20;95.30
20171;DHT22;10245;51.344;6.620;2022-10-16T02:35:36;12.20;95.20
20171;DHT22;10245;51.344;6.620;2022-10-16T02:38:01;12.20;95.10
20171;DHT22;10245;51.344;6.620;2022-10-16T02:40:26;12.30;95.10
20171;DHT22;10245;51.344;6.620;2022-10-16T02:42:51;12.20;95.00
20171;DHT22;10245;51.344;6.620;2022-10-16T02:45:15;12.40;95.00
20171;DHT22;10245;51.344;6.620;2022-10-16T02:47:38;12.40;94.80
20171;DHT22;10245;51.344;6.620;2022-10-16T02:50:02;12.40;94.80
20171;DHT22;10245;51.344;6.620;2022-10-16T02:52:26;12.40;94.70
20171;DHT22;10245;51.344;6.620;2022-10-16T02:54:51;12.40;94.70
20171;DHT22;10245;51.344;6.620;2022-10-16T02:57:15;12.40;94.80
20171;DHT22;10245;51.344;6.620;2022-10-16T02:59:38;12.40;94.90
20171;DHT22;10245;51.344;6.620;2022-10-16T03:02:02;12.40;94.80
20171;DHT22;10245;51.344;6.620;2022-10-16T03:04:25;12.30;94.70
20171;DHT22;10245;51.344;6.620;2022-10-16T03:06:48;12.40;94.50
20171;DHT22;10245;51.344;6.620;2022-10-16T03:09:11;12.30;94.60
20171;DHT22;10245;51.344;6.620;2022-10-16T03:11:36;12.40;94.40
20171;DHT22;10245;51.344;6.620;2022-10-16T03:13:59;12.50;94.10
20171;DHT22;10245;51.344;6.620;2022-10-16T03:16:23;12.50;93.90
20171;DHT22;10245;51.344;6.620;2022-10-16T03:18:48;12.50;94.20
20171;DHT22;10245;51.344;6.620;2022-10-16T03:21:11;12.50;94.10
20171;DHT22;10245;51.344;6.620;2022-10-16T03:23:34;12.50;94.10
20171;DHT22;10245;51.344;6.620;2022-10-16T03:25:57;12.40;94.10
20171;DHT22;10245;51.344;6.620;2022-10-16T03:28:22;12.40;94.10
20171;DHT22;10245;51.344;6.620;2022-10-16T03:30:45;12.40;94.20
20171;DHT22;10245;51.344;6.620;2022-10-16T03:33:09;12.40;94.20
20171;DHT22;10245;51.344;6.620;2022-10-16T03:35:32;12.40;94.20
20171;DHT22;10245;51.344;6.620;2022-10-16T03:37:56;12.30;94.20
20171;DHT22;10245;51.344;6.620;2022-10-16T03:40:19;12.30;94.10
20171;DHT22;10245;51.344;6.620;2022-10-16T03:42:43;12.30;94.00
20171;DHT22;10245;51.344;6.620;2022-10-16T03:45:09;12.40;94.00
20171;DHT22;10245;51.344;6.620;2022-10-16T03:47:32;12.30;93.90
20171;DHT22;10245;51.344;6.620;2022-10-16T03:49:56;12.30;93.90
20171;DHT22;10245;51.344;6.620;2022-10-16T03:52:19;12.30;93.90
20171;DHT22;10245;51.344;6.620;2022-10-16T03:54:42;12.30;93.80
20171;DHT22;10245;51.344;6.620;2022-10-16T03:57:06;12.30;93.60
20171;DHT22;10245;51.344;6.620;2022-10-16T03:59:29;12.30;93.50
20171;DHT22;10245;51.344;6.620;2022-10-16T04:01:54;12.30;93.40
20171;DHT22;10245;51.344;6.620;2022-10-16T04:04:18;12.20;93.50
20171;DHT22;10245;51.344;6.620;2022-10-16T04:06:41;12.20;93.60
20171;DHT22;10245;51.344;6.620;2022-10-16T04:09:04;12.20;93.70
20171;DHT22;10245;51.344;6.620;2022-10-16T04:11:28;12.10;93.80
20171;DHT22;10245;51.344;6.620;2022-10-16T04:13:51;12.20;93.90
20171;DHT22;10245;51.344;6.620;2022-10-16T04:16:15;12.10;93.90
20171;DHT22;10245;51.344;6.620;2022-10-16T04:18:40;12.10;93.80
20171;DHT22;10245;51.344;6.620;2022-10-16T04:21:04;12.10;93.80
20171;DHT22;10245;51.344;6.620;2022-10-16T04:23:27;12.10;93.60
20171;DHT22;10245;51.344;6.620;2022-10-16T04:25:50;12.00;93.60
20171;DHT22;10245;51.344;6.620;2022-10-16T04:28:14;12.10;93.70
20171;DHT22;10245;51.344;6.620;2022-10-16T04:30:38;12.00;93.80
20171;DHT22;10245;51.344;6.620;2022-10-16T04:33:01;12.00;93.70
20171;DHT22;10245;51.344;6.620;2022-10-16T04:35:26;12.00;93.90
20171;DHT22;10245;51.344;6.620;2022-10-16T04:37:50;11.90;94.00
20171;DHT22;10245;51.344;6.620;2022-10-16T04:40:13;11.80;93.90
20171;DHT22;10245;51.344;6.620;2022-10-16T04:42:37;11.80;94.10
20171;DHT22;10245;51.344;6.620;2022-10-16T04:45:01;11.80;94.00
20171;DHT22;10245;51.344;6.620;2022-10-16T04:47:24;11.90;94.00
20171;DHT22;10245;51.344;6.620;2022-10-16T04:49:48;11.90;94.00
20171;DHT22;10245;51.344;6.620;2022-10-16T04:52:12;12.00;94.00
20171;DHT22;10245;51.344;6.620;2022-10-16T04:54:36;11.90;94.10
20171;DHT22;10245;51.344;6.620;2022-10-16T04:56:59;11.90;94.30
20171;DHT22;10245;51.344;6.620;2022-10-16T04:59:23;11.80;94.10
20171;DHT22;10245;51.344;6.620;2022-10-16T05:01:46;11.80;94.10
20171;DHT22;10245;51.344;6.620;2022-10-16T05:04:10;11.90;94.20
20171;DHT22;10245;51.344;6.620;2022-10-16T05:06:34;11.90;94.10
20171;DHT22;10245;51.344;6.620;2022-10-16T05:08:59;11.90;94.10
20171;DHT22;10245;51.344;6.620;2022-10-16T05:11:22;12.00;94.10
20171;DHT22;10245;51.344;6.620;2022-10-16T05:13:45;11.90;94.10
20171;DHT22;10245;51.344;6.620;2022-10-16T05:16:14;12.00;94.10
20171;DHT22;10245;51.344;6.620;2022-10-16T05:18:37;12.00;94.20
20171;DHT22;10245;51.344;6.620;2022-10-16T05:21:01;12.00;94.30
20171;DHT22;10245;51.344;6.620;2022-10-16T05:23:24;12.00;94.20
20171;DHT22;10245;51.344;6.620;2022-10-16T05:25:53;12.00;94.20
20171;DHT22;10245;51.344;6.620;2022-10-16T05:28:19;12.00;94.10
20171;DHT22;10245;51.344;6.620;2022-10-16T05:30:43;12.00;94.10
20171;DHT22;10245;51.344;6.620;2022-10-16T05:33:06;12.00;94.00
20171;DHT22;10245;51.344;6.620;2022-10-16T05:35:29;12.00;94.20
20171;DHT22;10245;51.344;6.620;2022-10-16T05:37:53;12.00;94.10
20171;DHT22;10245;51.344;6.620;2022-10-16T05:40:16;12.00;94.10
20171;DHT22;10245;51.344;6.620;2022-10-16T05:42:41;12.00;94.20
20171;DHT22;10245;51.344;6.620;2022-10-16T05:45:05;12.00;94.20
20171;DHT22;10245;51.344;6.620;2022-10-16T05:47:29;11.90;94.30
20171;DHT22;10245;51.344;6.620;2022-10-16T05:49:53;11.90;94.20
20171;DHT22;10245;51.344;6.620;2022-10-16T05:52:17;12.00;94.20
20171;DHT22;10245;51.344;6.620;2022-10-16T05:54:40;11.90;94.20
20171;DHT22;10245;51.344;6.620;2022-10-16T05:57:03;11.90;94.20
20171;DHT22;10245;51.344;6.620;2022-10-16T05:59:28;11.90;94.30
20171;DHT22;10245;51.344;6.620;2022-10-16T06:01:52;11.90;94.20
20171;DHT22;10245;51.344;6.620;2022-10-16T06:04:15;11.90;94.20
20171;DHT22;10245;51.344;6.620;2022-10-16T06:06:39;11.80;94.20
20171;DHT22;10245;51.344;6.620;2022-10-16T06:09:03;11.80;94.30
20171;DHT22;10245;51.344;6.620;2022-10-16T06:11:28;11.80;94.20
20171;DHT22;10245;51.344;6.620;2022-10-16T06:13:54;11.80;94.30
20171;DHT22;10245;51.344;6.620;2022-10-16T06:16:20;11.80;94.40
20171;DHT22;10245;51.344;6.620;2022-10-16T06:18:43;11.70;94.10
20171;DHT22;10245;51.344;6.620;2022-10-16T06:21:09;11.70;94.40
20171;DHT22;10245;51.344;6.620;2022-10-16T06:23:33;11.80;94.30
20171;DHT22;10245;51.344;6.620;2022-10-16T06:26:05;11.80;94.40
20171;DHT22;10245;51.344;6.620;2022-10-16T06:28:29;11.80;94.30
20171;DHT22;10245;51.344;6.620;2022-10-16T06:30:59;11.80;94.30
20171;DHT22;10245;51.344;6.620;2022-10-16T06:33:29;11.80;94.60
20171;DHT22;10245;51.344;6.620;2022-10-16T06:35:52;11.80;94.50
20171;DHT22;10245;51.344;6.620;2022-10-16T06:38:16;11.70;94.60
20171;DHT22;10245;51.344;6.620;2022-10-16T06:40:39;11.80;94.60
20171;DHT22;10245;51.344;6.620;2022-10-16T06:43:02;11.80;94.60
20171;DHT22;10245;51.344;6.620;2022-10-16T06:45:26;11.80;94.80
20171;DHT22;10245;51.344;6.620;2022-10-16T06:47:49;11.80;94.70
20171;DHT22;10245;51.344;6.620;2022-10-16T06:50:13;11.80;94.80
20171;DHT22;10245;51.344;6.620;2022-10-16T06:52:37;11.90;94.70
20171;DHT22;10245;51.344;6.620;2022-10-16T06:55:00;11.90;94.70
20171;DHT22;10245;51.344;6.620;2022-10-16T06:57:24;11.90;94.70
20171;DHT22;10245;51.344;6.620;2022-10-16T06:59:47;12.00;94.70
20171;DHT22;10245;51.344;6.620;2022-10-16T07:02:16;12.00;94.70
20171;DHT22;10245;51.344;6.620;2022-10-16T07:04:39;12.10;94.50
20171;DHT22;10245;51.344;6.620;2022-10-16T07:07:04;12.10;94.50
20171;DHT22;10245;51.344;6.620;2022-10-16T07:09:30;12.10;94.60
20171;DHT22;10245;51.344;6.620;2022-10-16T07:11:53;12.20;94.70
20171;DHT22;10245;51.344;6.620;2022-10-16T07:14:18;12.30;94.50
20171;DHT22;10245;51.344;6.620;2022-10-16T07:16:43;12.40;94.20
20171;DHT22;10245;51.344;6.620;2022-10-16T07:19:06;12.30;94.30
20171;DHT22;10245;51.344;6.620;2022-10-16T07:21:33;12.30;94.30
20171;DHT22;10245;51.344;6.620;2022-10-16T07:24:00;12.30;94.30
20171;DHT22;10245;51.344;6.620;2022-10-16T07:26:25;12.30;94.10
20171;DHT22;10245;51.344;6.620;2022-10-16T07:28:49;12.50;94.30
20171;DHT22;10245;51.344;6.620;2022-10-16T07:31:14;12.90;94.10
20171;DHT22;10245;51.344;6.620;2022-10-16T07:33:39;13.10;94.40
20171;DHT22;10245;51.344;6.620;2022-10-16T07:36:06;13.30;94.00
20171;DHT22;10245;51.344;6.620;2022-10-16T07:38:36;13.20;93.70
20171;DHT22;10245;51.344;6.620;2022-10-16T07:41:02;13.20;93.10
20171;DHT22;10245;51.344;6.620;2022-10-16T07:43:27;13.30;92.20
20171;DHT22;10245;51.344;6.620;2022-10-16T07:45:51;13.30;92.70
20171;DHT22;10245;51.344;6.620;2022-10-16T07:48:16;13.60;91.90
20171;DHT22;10245;51.344;6.620;2022-10-16T07:50:40;13.70;92.30
20171;DHT22;10245;51.344;6.620;2022-10-16T07:53:04;13.80;91.50
20171;DHT22;10245;51.344;6.620;2022-10-16T07:55:27;13.90;91.20
20171;DHT22;10245;51.344;6.620;2022-10-16T07:57:51;14.00;91.90
20171;DHT22;10245;51.344;6.620;2022-10-16T08:00:15;14.10;90.00
20171;DHT22;10245;51.344;6.620;2022-10-16T08:02:39;14.20;91.40
20171;DHT22;10245;51.344;6.620;2022-10-16T08:05:02;14.40;90.60
20171;DHT22;10245;51.344;6.620;2022-10-16T08:07:26;14.50;90.00
20171;DHT22;10245;51.344;6.620;2022-10-16T08:09:49;14.40;90.00
20171;DHT22;10245;51.344;6.620;2022-10-16T08:12:14;14.50;90.00
20171;DHT22;10245;51.344;6.620;2022-10-16T08:14:39;14.50;90.60
20171;DHT22;10245;51.344;6.620;2022-10-16T08:17:07;14.70;88.30
20171;DHT22;10245;51.344;6.620;2022-10-16T08:19:31;14.80;89.90
20171;DHT22;10245;51.344;6.620;2022-10-16T08:21:56;15.00;88.20
20171;DHT22;10245;51.344;6.620;2022-10-16T08:24:19;14.80;88.70
20171;DHT22;10245;51.344;6.620;2022-10-16T08:26:43;14.80;88.10
20171;DHT22;10245;51.344;6.620;2022-10-16T08:29:06;14.90;88.90
20171;DHT22;10245;51.344;6.620;2022-10-16T08:31:31;14.90;87.70
20171;DHT22;10245;51.344;6.620;2022-10-16T08:33:54;15.00;87.60
20171;DHT22;10245;51.344;6.620;2022-10-16T08:36:17;15.20;88.60
20171;DHT22;10245;51.344;6.620;2022-10-16T08:38:41;15.20;85.70
20171;DHT22;10245;51.344;6.620;2022-10-16T08:41:21;15.30;86.30
20171;DHT22;10245;51.344;6.620;2022-10-16T08:44:12;15.60;87.40
20171;DHT22;10245;51.344;6.620;2022-10-16T08:47:09;15.50;86.30
20171;DHT22;10245;51.344;6.620;2022-10-16T08:49:37;15.80;87.30
20171;DHT22;10245;51.344;6.620;2022-10-16T08:52:10;15.60;85.10
20171;DHT22;10245;51.344;6.620;2022-10-16T08:54:39;16.00;83.90
20171;DHT22;10245;51.344;6.620;2022-10-16T08:57:09;15.80;85.00
20171;DHT22;10245;51.344;6.620;2022-10-16T08:59:34;15.90;85.90
20171;DHT22;10245;51.344;6.620;2022-10-16T09:01:58;15.90;85.60
20171;DHT22;10245;51.344;6.620;2022-10-16T09:04:51;16.20;84.20
20171;DHT22;10245;51.344;6.620;2022-10-16T09:07:31;16.00;83.80
20171;DHT22;10245;51.344;6.620;2022-10-16T09:10:08;16.20;82.80
20171;DHT22;10245;51.344;6.620;2022-10-16T09:12:40;16.20;81.60
20171;DHT22;10245;51.344;6.620;2022-10-16T09:15:17;16.20;82.00
20171;DHT22;10245;51.344;6.620;2022-10-16T09:17:53;16.40;83.60
20171;DHT22;10245;51.344;6.620;2022-10-16T09:20:28;16.40;81.90
20171;DHT22;10245;51.344;6.620;2022-10-16T09:23:07;16.50;80.10
20171;DHT22;10245;51.344;6.620;2022-10-16T09:25:35;16.40;80.20
20171;DHT22;10245;51.344;6.620;2022-10-16T09:27:59;16.50;82.90
20171;DHT22;10245;51.344;6.620;2022-10-16T09:30:29;16.50;80.00
20171;DHT22;10245;51.344;6.620;2022-10-16T09:32:53;16.60;81.60
20171;DHT22;10245;51.344;6.620;2022-10-16T09:35:21;16.70;78.80
20171;DHT22;10245;51.344;6.620;2022-10-16T09:37:48;16.70;78.50
20171;DHT22;10245;51.344;6.620;2022-10-16T09:40:23;16.80;78.80
20171;DHT22;10245;51.344;6.620;2022-10-16T09:42:47;16.70;79.50
20171;DHT22;10245;51.344;6.620;2022-10-16T09:45:21;16.80;78.90
20171;DHT22;10245;51.344;6.620;2022-10-16T09:47:46;16.90;79.10
20171;DHT22;10245;51.344;6.620;2022-10-16T09:50:25;17.00;77.20
20171;DHT22;10245;51.344;6.620;2022-10-16T09:52:49;16.90;77.60
20171;DHT22;10245;51.344;6.620;2022-10-16T09:55:14;17.10;76.90
20171;DHT22;10245;51.344;6.620;2022-10-16T09:57:48;17.00;76.80
20171;DHT22;10245;51.344;6.620;2022-10-16T10:00:16;17.10;78.50
20171;DHT22;10245;51.344;6.620;2022-10-16T10:02:40;17.20;77.20
20171;DHT22;10245;51.344;6.620;2022-10-16T10:05:04;17.10;76.80
20171;DHT22;10245;51.344;6.620;2022-10-16T10:07:32;17.20;78.60
20171;DHT22;10245;51.344;6.620;2022-10-16T10:09:57;17.30;75.50
20171;DHT22;10245;51.344;6.620;2022-10-16T10:12:23;17.20;75.30
20171;DHT22;10245;51.344;6.620;2022-10-16T10:14:49;17.30;76.30
20171;DHT22;10245;51.344;6.620;2022-10-16T10:17:16;17.20;75.50
20171;DHT22;10245;51.344;6.620;2022-10-16T10:19:44;17.10;75.30
20171;DHT22;10245;51.344;6.620;2022-10-16T10:22:25;17.50;76.20
20171;DHT22;10245;51.344;6.620;2022-10-16T10:25:15;17.50;75.00
20171;DHT22;10245;51.344;6.620;2022-10-16T10:27:53;17.60;75.80
20171;DHT22;10245;51.344;6.620;2022-10-16T10:30:27;17.40;76.50
20171;DHT22;10245;51.344;6.620;2022-10-16T10:33:05;17.30;76.40
20171;DHT22;10245;51.344;6.620;2022-10-16T10:35:41;17.10;75.50
20171;DHT22;10245;51.344;6.620;2022-10-16T10:38:20;17.40;75.60
20171;DHT22;10245;51.344;6.620;2022-10-16T10:40:55;17.40;75.10
20171;DHT22;10245;51.344;6.620;2022-10-16T10:43:32;17.60;74.40
20171;DHT22;10245;51.344;6.620;2022-10-16T10:46:04;17.50;73.10
20171;DHT22;10245;51.344;6.620;2022-10-16T10:48:45;17.50;73.70
20171;DHT22;10245;51.344;6.620;2022-10-16T10:51:21;17.60;74.80
20171;DHT22;10245;51.344;6.620;2022-10-16T10:53:52;17.50;72.80
20171;DHT22;10245;51.344;6.620;2022-10-16T10:56:39;17.50;73.20
20171;DHT22;10245;51.344;6.620;2022-10-16T10:59:37;17.50;73.90
20171;DHT22;10245;51.344;6.620;2022-10-16T11:02:26;17.50;72.30
20171;DHT22;10245;51.344;6.620;2022-10-16T11:08:09;17.80;72.70
20171;DHT22;10245;51.344;6.620;2022-10-16T11:10:44;17.70;72.70
20171;DHT22;10245;51.344;6.620;2022-10-16T11:13:20;17.80;74.70
20171;DHT22;10245;51.344;6.620;2022-10-16T11:15:48;17.80;74.40
20171;DHT22;10245;51.344;6.620;2022-10-16T11:18:18;17.90;73.90
20171;DHT22;10245;51.344;6.620;2022-10-16T11:20:45;17.80;70.70
20171;DHT22;10245;51.344;6.620;2022-10-16T11:23:16;17.70;72.00
20171;DHT22;10245;51.344;6.620;2022-10-16T11:25:43;17.80;71.70
20171;DHT22;10245;51.344;6.620;2022-10-16T11:28:13;18.00;73.30
20171;DHT22;10245;51.344;6.620;2022-10-16T11:30:42;18.00;71.00
20171;DHT22;10245;51.344;6.620;2022-10-16T11:33:22;18.00;71.30
20171;DHT22;10245;51.344;6.620;2022-10-16T11:35:53;18.00;71.10
20171;DHT22;10245;51.344;6.620;2022-10-16T11:38:27;17.70;71.50
20171;DHT22;10245;51.344;6.620;2022-10-16T11:40:58;17.70;72.10
20171;DHT22;10245;51.344;6.620;2022-10-16T11:43:29;17.80;72.40
20171;DHT22;10245;51.344;6.620;2022-10-16T11:45:58;18.00;70.40
20171;DHT22;10245;51.344;6.620;2022-10-16T11:48:32;18.30;71.40
20171;DHT22;10245;51.344;6.620;2022-10-16T11:51:05;18.20;71.50
20171;DHT22;10245;51.344;6.620;2022-10-16T11:53:42;18.40;70.00
20171;DHT22;10245;51.344;6.620;2022-10-16T11:56:08;18.20;70.00
20171;DHT22;10245;51.344;6.620;2022-10-16T11:58:41;18.30;71.10
20171;DHT22;10245;51.344;6.620;2022-10-16T12:01:18;18.40;72.00
20171;DHT22;10245;51.344;6.620;2022-10-16T12:04:01;18.50;69.60
20171;DHT22;10245;51.344;6.620;2022-10-16T12:06:34;18.60;69.00
20171;DHT22;10245;51.344;6.620;2022-10-16T12:09:01;18.80;69.80
20171;DHT22;10245;51.344;6.620;2022-10-16T12:11:33;18.80;68.50
20171;DHT22;10245;51.344;6.620;2022-10-16T12:17:24;18.40;71.20
20171;DHT22;10245;51.344;6.620;2022-10-16T12:19:58;18.30;68.60
20171;DHT22;10245;51.344;6.620;2022-10-16T12:22:29;18.40;68.10
20171;DHT22;10245;51.344;6.620;2022-10-16T12:24:54;18.30;68.60
20171;DHT22;10245;51.344;6.620;2022-10-16T12:27:24;18.30;69.60
20171;DHT22;10245;51.344;6.620;2022-10-16T12:29:55;18.30;70.10
20171;DHT22;10245;51.344;6.620;2022-10-16T12:32:27;18.40;69.10
20171;DHT22;10245;51.344;6.620;2022-10-16T12:35:18;18.40;69.00
20171;DHT22;10245;51.344;6.620;2022-10-16T12:37:44;18.40;68.40
20171;DHT22;10245;51.344;6.620;2022-10-16T12:40:13;18.30;67.90
20171;DHT22;10245;51.344;6.620;2022-10-16T12:42:38;18.20;68.60
20171;DHT22;10245;51.344;6.620;2022-10-16T12:45:22;18.40;67.20
20171;DHT22;10245;51.344;6.620;2022-10-16T12:47:49;18.50;68.30
20171;DHT22;10245;51.344;6.620;2022-10-16T12:50:26;18.60;66.70
20171;DHT22;10245;51.344;6.620;2022-10-16T12:52:52;18.80;67.10
20171;DHT22;10245;51.344;6.620;2022-10-16T12:55:17;18.70;66.00
20171;DHT22;10245;51.344;6.620;2022-10-16T12:57:48;18.60;67.80
20171;DHT22;10245;51.344;6.620;2022-10-16T13:00:26;18.40;68.50
20171;DHT22;10245;51.344;6.620;2022-10-16T13:03:08;18.30;69.20
20171;DHT22;10245;51.344;6.620;2022-10-16T13:05:54;18.10;69.70
20171;DHT22;10245;51.344;6.620;2022-10-16T13:08:50;18.30;67.20
20171;DHT22;10245;51.344;6.620;2022-10-16T13:11:49;18.30;66.90
20171;DHT22;10245;51.344;6.620;2022-10-16T13:14:50;18.20;69.60
20171;DHT22;10245;51.344;6.620;2022-10-16T13:17:42;18.10;69.60
20171;DHT22;10245;51.344;6.620;2022-10-16T13:20:16;18.10;70.70
20171;DHT22;10245;51.344;6.620;2022-10-16T13:22:51;18.20;70.50
20171;DHT22;10245;51.344;6.620;2022-10-16T13:25:26;18.20;71.20
20171;DHT22;10245;51.344;6.620;2022-10-16T13:28:00;18.10;70.40
20171;DHT22;10245;51.344;6.620;2022-10-16T13:30:26;18.40;70.50
20171;DHT22;10245;51.344;6.620;2022-10-16T13:32:57;18.40;70.20
20171;DHT22;10245;51.344;6.620;2022-10-16T13:35:26;18.50;70.60
20171;DHT22;10245;51.344;6.620;2022-10-16T13:37:51;18.40;68.80
20171;DHT22;10245;51.344;6.620;2022-10-16T13:40:19;18.50;69.70
20171;DHT22;10245;51.344;6.620;2022-10-16T13:42:44;18.60;67.50
20171;DHT22;10245;51.344;6.620;2022-10-16T13:45:17;18.50;67.00
20171;DHT22;10245;51.344;6.620;2022-10-16T13:47:42;18.50;67.60
20171;DHT22;10245;51.344;6.620;2022-10-16T13:50:12;18.50;69.80
20171;DHT22;10245;51.344;6.620;2022-10-16T13:52:36;18.50;67.60
20171;DHT22;10245;51.344;6.620;2022-10-16T13:55:00;18.50;66.00
20171;DHT22;10245;51.344;6.620;2022-10-16T13:57:24;18.50;67.40
20171;DHT22;10245;51.344;6.620;2022-10-16T13:59:48;18.50;66.60
20171;DHT22;10245;51.344;6.620;2022-10-16T14:02:20;18.60;68.10
20171;DHT22;10245;51.344;6.620;2022-10-16T14:04:46;18.50;67.10
20171;DHT22;10245;51.344;6.620;2022-10-16T14:07:14;18.50;67.00
20171;DHT22;10245;51.344;6.620;2022-10-16T14:09:48;18.50;65.70
20171;DHT22;10245;51.344;6.620;2022-10-16T14:12:12;18.40;65.20
20171;DHT22;10245;51.344;6.620;2022-10-16T14:14:41;18.30;65.70
20171;DHT22;10245;51.344;6.620;2022-10-16T14:17:06;18.20;67.90
20171;DHT22;10245;51.344;6.620;2022-10-16T14:19:30;18.30;68.90
20171;DHT22;10245;51.344;6.620;2022-10-16T14:21:53;18.30;71.80
20171;DHT22;10245;51.344;6.620;2022-10-16T14:24:27;18.20;72.20
20171;DHT22;10245;51.344;6.620;2022-10-16T14:26:55;18.00;72.20
20171;DHT22;10245;51.344;6.620;2022-10-16T14:29:19;18.10;75.50
20171;DHT22;10245;51.344;6.620;2022-10-16T14:31:43;18.20;71.40
20171;DHT22;10245;51.344;6.620;2022-10-16T14:34:28;18.20;73.10
20171;DHT22;10245;51.344;6.620;2022-10-16T14:36:54;18.30;71.60
20171;DHT22;10245;51.344;6.620;2022-10-16T14:39:20;18.50;71.20
20171;DHT22;10245;51.344;6.620;2022-10-16T14:41:50;18.30;73.10
20171;DHT22;10245;51.344;6.620;2022-10-16T14:44:17;18.30;73.90
20171;DHT22;10245;51.344;6.620;2022-10-16T14:46:42;18.40;72.20
20171;DHT22;10245;51.344;6.620;2022-10-16T14:49:15;18.10;73.00
20171;DHT22;10245;51.344;6.620;2022-10-16T14:51:42;18.10;73.20
20171;DHT22;10245;51.344;6.620;2022-10-16T14:54:07;18.10;73.90
20171;DHT22;10245;51.344;6.620;2022-10-16T14:56:35;18.20;74.10
20171;DHT22;10245;51.344;6.620;2022-10-16T14:59:11;18.10;76.40
20171;DHT22;10245;51.344;6.620;2022-10-16T15:01:37;18.10;72.50
20171;DHT22;10245;51.344;6.620;2022-10-16T15:04:00;18.10;72.90
20171;DHT22;10245;51.344;6.620;2022-10-16T15:06:23;18.00;77.20
20171;DHT22;10245;51.344;6.620;2022-10-16T15:08:47;18.00;76.50
20171;DHT22;10245;51.344;6.620;2022-10-16T15:11:14;18.00;73.50
20171;DHT22;10245;51.344;6.620;2022-10-16T15:13:38;18.00;74.40
20171;DHT22;10245;51.344;6.620;2022-10-16T15:16:03;17.80;75.60
20171;DHT22;10245;51.344;6.620;2022-10-16T15:18:27;17.70;77.10
20171;DHT22;10245;51.344;6.620;2022-10-16T15:20:51;17.70;76.90
20171;DHT22;10245;51.344;6.620;2022-10-16T15:23:15;17.80;79.90
20171;DHT22;10245;51.344;6.620;2022-10-16T15:25:43;17.70;80.40
20171;DHT22;10245;51.344;6.620;2022-10-16T15:28:07;17.80;78.70
20171;DHT22;10245;51.344;6.620;2022-10-16T15:30:31;17.80;79.10
20171;DHT22;10245;51.344;6.620;2022-10-16T15:32:56;17.70;77.10
20171;DHT22;10245;51.344;6.620;2022-10-16T15:35:20;17.50;78.20
20171;DHT22;10245;51.344;6.620;2022-10-16T15:37:43;17.50;80.50
20171;DHT22;10245;51.344;6.620;2022-10-16T15:40:08;17.50;79.20